Shawnee, Pennsylvania
Current Conditions -  °F | °C
As of 2:53 AM on Thursday 23 Oct 2014 (Local Time) from KMPO Reporting Station
Overcast Overcast  
Wind Chill: 38°   Ceiling: 1100
Heat Index: 45°   Visibility: 10mi
Dew Point: 41°   Wind: 17mph
Humidity: 86%   Direction: 340°NNW
Pressure: 29.8"   Gusts: 28mph
Location:  41.0124°N, 75.1113°W
Report Text: KMPO 230653Z AUTO 34015G24KT 10SM OVC011 07/05 A2980 RMK AO2 PK WND 35028/0557 RAE0554B30E42 CIG 007V013 SLP098 T00720050 TSNO PNO $
Loading
Personal Weather Stations






























Interactive Weather Map
Tropical Storm Tracking
New forecast layout! Learn more

10-Day Weather Forecast

Advertisements
Track Severe Weather on mobile